createdAt,value
2018-09-22T00:00:51.992Z,10.90
2018-09-22T00:03:21.778Z,10.90
2018-09-22T00:05:50.888Z,10.80
2018-09-22T00:08:20.009Z,10.80
2018-09-22T00:10:49.080Z,10.90
2018-09-22T00:13:18.190Z,10.80
2018-09-22T00:15:47.318Z,10.80
2018-09-22T00:18:16.304Z,10.80
2018-09-22T00:20:45.446Z,10.80
2018-09-22T00:23:14.556Z,10.90
2018-09-22T00:25:43.653Z,10.90
2018-09-22T00:28:12.996Z,10.90
2018-09-22T00:30:42.073Z,10.90
2018-09-22T00:33:11.189Z,10.90
2018-09-22T00:35:40.342Z,10.80
2018-09-22T00:38:09.409Z,10.80
2018-09-22T00:40:38.452Z,10.80
2018-09-22T00:43:07.752Z,10.80
2018-09-22T00:45:36.880Z,10.80
2018-09-22T00:48:05.987Z,10.80
2018-09-22T00:50:35.089Z,10.80
2018-09-22T00:53:04.135Z,10.80
2018-09-22T00:55:33.256Z,10.80
2018-09-22T00:58:02.860Z,10.80
2018-09-22T01:00:31.964Z,10.80
2018-09-22T01:03:01.016Z,10.80
2018-09-22T01:05:30.145Z,10.90
2018-09-22T01:07:59.219Z,10.90
2018-09-22T01:10:28.316Z,10.90
2018-09-22T01:12:57.408Z,11.00
2018-09-22T01:15:26.550Z,11.00
2018-09-22T01:17:55.588Z,11.00
2018-09-22T01:20:25.096Z,10.90
2018-09-22T01:22:54.224Z,10.90
2018-09-22T01:25:23.321Z,10.90
2018-09-22T01:27:52.416Z,10.90
2018-09-22T01:30:21.499Z,10.80
2018-09-22T01:32:50.563Z,10.80
2018-09-22T01:35:20.236Z,10.70
2018-09-22T01:37:49.320Z,10.70
2018-09-22T01:40:18.436Z,10.70
2018-09-22T01:42:47.508Z,10.70
2018-09-22T01:45:16.589Z,10.70
2018-09-22T01:47:45.816Z,10.70
2018-09-22T01:50:14.896Z,10.70
2018-09-22T01:52:43.982Z,10.70
2018-09-22T01:55:13.016Z,10.70
2018-09-22T01:57:43.033Z,10.70
2018-09-22T02:00:12.168Z,10.60
2018-09-22T02:02:41.208Z,10.60
2018-09-22T02:05:10.300Z,10.50
2018-09-22T02:07:39.352Z,10.50
2018-09-22T02:10:08.460Z,10.50
2018-09-22T02:12:37.532Z,10.40
2018-09-22T02:15:06.769Z,10.40
2018-09-22T02:17:35.860Z,10.40
2018-09-22T02:20:05.365Z,10.40
2018-09-22T02:22:34.528Z,10.40
2018-09-22T02:25:03.640Z,10.30
2018-09-22T02:27:32.753Z,10.30
2018-09-22T02:30:01.853Z,10.30
2018-09-22T02:32:31.155Z,10.30
2018-09-22T02:35:00.326Z,10.20
2018-09-22T02:37:29.388Z,10.20
2018-09-22T02:39:58.537Z,10.20
2018-09-22T02:42:27.596Z,10.20
2018-09-22T02:44:56.709Z,10.20
2018-09-22T02:47:26.257Z,10.20
2018-09-22T02:49:56.965Z,10.20
2018-09-22T02:52:26.036Z,10.20
2018-09-22T02:54:55.156Z,10.30
2018-09-22T02:57:24.254Z,10.30
2018-09-22T02:59:53.350Z,10.20
2018-09-22T03:02:22.753Z,10.20
2018-09-22T03:04:51.854Z,10.20
2018-09-22T03:07:20.922Z,10.20
2018-09-22T03:09:50.004Z,10.20
2018-09-22T03:12:19.103Z,10.10
2018-09-22T03:14:48.760Z,10.00
2018-09-22T03:17:17.816Z,10.00
2018-09-22T03:19:46.932Z,10.00
2018-09-22T03:22:16.033Z,10.00
2018-09-22T03:24:45.124Z,10.00
2018-09-22T03:27:14.725Z,10.00
2018-09-22T03:29:43.832Z,10.00
2018-09-22T03:32:12.917Z,10.00
2018-09-22T03:34:42.008Z,10.10
2018-09-22T03:37:11.083Z,10.00
2018-09-22T03:39:40.209Z,9.90
2018-09-22T03:42:09.425Z,10.00
2018-09-22T03:44:39.144Z,10.00
2018-09-22T03:47:08.314Z,10.00
2018-09-22T03:49:37.465Z,10.00
2018-09-22T03:52:06.828Z,10.00
2018-09-22T03:54:35.968Z,10.00
2018-09-22T03:57:05.100Z,10.00
2018-09-22T03:59:34.208Z,10.00
2018-09-22T04:02:03.268Z,10.00
2018-09-22T04:04:32.589Z,9.90
2018-09-22T04:07:01.692Z,9.90
2018-09-22T04:09:30.881Z,9.90
2018-09-22T04:11:59.965Z,9.90
2018-09-22T04:14:29.085Z,9.90
2018-09-22T04:16:58.177Z,9.90
2018-09-22T04:19:27.255Z,9.90
2018-09-22T04:21:56.851Z,9.80
2018-09-22T04:24:25.980Z,9.80
2018-09-22T04:26:55.127Z,9.80
2018-09-22T04:29:24.269Z,9.80
2018-09-22T04:31:53.364Z,9.80
2018-09-22T04:34:22.433Z,9.80
2018-09-22T04:36:51.529Z,9.70
2018-09-22T04:39:20.624Z,9.70
2018-09-22T04:41:49.741Z,9.70
2018-09-22T04:44:18.893Z,9.70
2018-09-22T04:46:48.037Z,9.80
2018-09-22T04:49:17.128Z,9.80
2018-09-22T04:51:46.204Z,9.90
2018-09-22T04:54:15.324Z,9.90
2018-09-22T04:56:44.525Z,9.90
2018-09-22T04:59:13.560Z,9.90
2018-09-22T05:01:42.600Z,9.90
2018-09-22T05:04:11.704Z,9.90
2018-09-22T05:06:40.764Z,10.00
2018-09-22T05:09:12.296Z,9.90
2018-09-22T05:11:41.536Z,9.90
2018-09-22T05:14:10.742Z,9.90
2018-09-22T05:16:40.157Z,9.80
2018-09-22T05:19:09.248Z,9.70
2018-09-22T05:21:38.284Z,9.80
2018-09-22T05:24:07.428Z,9.90
2018-09-22T05:26:36.488Z,9.90
2018-09-22T05:29:05.902Z,10.00
2018-09-22T05:31:35.508Z,10.00
2018-09-22T05:34:04.698Z,10.10
2018-09-22T05:36:33.788Z,10.00
2018-09-22T05:39:02.840Z,10.00
2018-09-22T05:41:32.050Z,10.00
2018-09-22T05:44:01.100Z,10.10
2018-09-22T05:46:30.500Z,10.10
2018-09-22T05:49:00.023Z,10.20
2018-09-22T05:51:29.092Z,10.30
2018-09-22T05:53:58.492Z,10.30
2018-09-22T05:56:27.507Z,10.30
2018-09-22T05:58:57.184Z,10.40
2018-09-22T06:01:26.490Z,10.50
2018-09-22T06:03:56.261Z,10.50
2018-09-22T06:06:25.097Z,10.50
2018-09-22T06:08:55.249Z,10.70
2018-09-22T06:11:24.348Z,10.80
2018-09-22T06:13:53.436Z,10.80
2018-09-22T06:16:22.945Z,10.90
2018-09-22T06:18:51.996Z,11.00
2018-09-22T06:21:21.420Z,11.10
2018-09-22T06:23:50.517Z,11.10
2018-09-22T06:26:19.779Z,11.20
2018-09-22T06:28:48.942Z,11.30
2018-09-22T06:31:18.180Z,11.40
2018-09-22T06:33:47.206Z,11.50
2018-09-22T06:36:16.303Z,11.60
2018-09-22T06:38:45.384Z,12.00
2018-09-22T06:41:14.447Z,12.40
2018-09-22T06:43:43.589Z,12.90
2018-09-22T06:46:12.955Z,13.50
2018-09-22T06:48:42.023Z,13.80
2018-09-22T06:51:11.500Z,13.80
2018-09-22T06:53:40.776Z,13.70
2018-09-22T06:56:09.872Z,13.80
2018-09-22T06:58:39.005Z,13.90
2018-09-22T07:01:08.100Z,13.90
2018-09-22T07:03:37.156Z,13.90
2018-09-22T07:06:06.240Z,14.10
2018-09-22T07:08:35.792Z,14.10
2018-09-22T07:11:04.851Z,14.00
2018-09-22T07:13:33.909Z,14.10
2018-09-22T07:16:02.981Z,14.10
2018-09-22T07:18:32.016Z,14.00
2018-09-22T07:21:06.613Z,13.80
2018-09-22T07:23:35.992Z,13.60
2018-09-22T07:26:05.432Z,13.90
2018-09-22T07:28:34.577Z,14.30
2018-09-22T07:31:03.876Z,14.80
2018-09-22T07:33:32.992Z,15.00
2018-09-22T07:36:02.097Z,15.40
2018-09-22T07:38:31.161Z,15.40
2018-09-22T07:41:00.276Z,15.30
2018-09-22T07:43:30.049Z,15.50
2018-09-22T07:45:59.114Z,15.60
2018-09-22T07:48:28.333Z,16.00
2018-09-22T07:50:57.784Z,16.40
2018-09-22T07:53:26.864Z,16.80
2018-09-22T07:55:56.148Z,17.20
2018-09-22T07:58:25.280Z,17.00
2018-09-22T08:00:54.373Z,16.70
2018-09-22T08:03:23.472Z,16.50
2018-09-22T08:05:52.544Z,16.20
2018-09-22T08:08:21.768Z,16.50
2018-09-22T08:10:50.836Z,17.00
2018-09-22T08:13:20.464Z,16.80
2018-09-22T08:15:49.565Z,17.00
2018-09-22T08:18:18.657Z,17.00
2018-09-22T08:20:47.780Z,17.50
2018-09-22T08:23:17.100Z,17.50
2018-09-22T08:25:46.164Z,17.50
2018-09-22T08:28:15.312Z,18.00
2018-09-22T08:30:44.443Z,18.60
2018-09-22T08:33:13.608Z,19.10
2018-09-22T08:35:42.721Z,19.20
2018-09-22T08:38:11.835Z,19.40
2018-09-22T08:40:41.096Z,19.50
2018-09-22T08:43:10.180Z,19.80
2018-09-22T08:45:39.318Z,20.00
2018-09-22T08:48:08.835Z,19.90
2018-09-22T08:50:37.876Z,20.40
2018-09-22T08:53:07.341Z,20.90
2018-09-22T08:55:36.468Z,20.40
2018-09-22T08:58:06.200Z,20.20
2018-09-22T09:00:35.379Z,20.30
2018-09-22T09:03:04.390Z,21.10
2018-09-22T09:05:33.464Z,21.40
2018-09-22T09:08:02.504Z,21.60
2018-09-22T09:10:31.611Z,22.20
2018-09-22T09:13:00.692Z,22.80
2018-09-22T09:15:29.820Z,22.00
2018-09-22T09:17:58.856Z,21.90
2018-09-22T09:20:27.984Z,21.20
2018-09-22T09:22:57.096Z,20.00
2018-09-22T09:25:26.674Z,20.50
2018-09-22T09:27:55.765Z,21.20
2018-09-22T09:30:24.860Z,22.60
2018-09-22T09:32:53.971Z,23.50
2018-09-22T09:35:23.104Z,24.00
2018-09-22T09:37:52.253Z,24.20
2018-09-22T09:40:21.339Z,25.00
2018-09-22T09:42:50.461Z,25.40
2018-09-22T09:45:19.557Z,24.20
2018-09-22T09:47:48.627Z,24.30
2018-09-22T09:50:17.700Z,25.10
2018-09-22T09:52:46.844Z,24.40
2018-09-22T09:55:15.944Z,24.80
2018-09-22T09:57:44.972Z,24.90
2018-09-22T10:00:14.067Z,24.90
2018-09-22T10:02:43.180Z,23.80
2018-09-22T10:05:12.276Z,24.20
2018-09-22T10:07:41.416Z,25.40
2018-09-22T10:10:10.826Z,24.80
2018-09-22T10:12:39.914Z,23.60
2018-09-22T10:15:09.011Z,24.40
2018-09-22T10:17:38.152Z,23.50
2018-09-22T10:20:07.373Z,23.20
2018-09-22T10:22:36.452Z,23.50
2018-09-22T10:25:05.596Z,23.30
2018-09-22T10:27:34.636Z,23.50
2018-09-22T10:30:03.812Z,24.70
2018-09-22T10:32:32.941Z,25.60
2018-09-22T10:35:02.044Z,25.00
2018-09-22T10:37:31.152Z,24.60
2018-09-22T10:40:00.292Z,24.80
2018-09-22T10:42:29.340Z,25.10
2018-09-22T10:44:58.468Z,25.20
2018-09-22T10:47:27.865Z,25.60
2018-09-22T10:49:56.928Z,24.20
2018-09-22T10:52:26.483Z,23.40
2018-09-22T10:54:55.553Z,23.00
2018-09-22T10:57:24.624Z,22.10
2018-09-22T10:59:53.776Z,22.50
2018-09-22T11:02:22.872Z,23.60
2018-09-22T11:04:51.916Z,23.50
2018-09-22T11:07:21.012Z,23.30
2018-09-22T11:09:50.132Z,22.80
2018-09-22T11:12:19.184Z,22.00
2018-09-22T11:14:48.244Z,21.60
2018-09-22T11:17:17.424Z,20.70
2018-09-22T11:19:46.621Z,20.50
2018-09-22T11:22:15.688Z,21.10
2018-09-22T11:24:45.120Z,21.10
2018-09-22T11:27:14.151Z,21.80
2018-09-22T11:29:43.196Z,22.00
2018-09-22T11:32:12.277Z,22.20
2018-09-22T11:34:42.028Z,22.20
2018-09-22T11:37:11.104Z,23.20
2018-09-22T11:39:40.712Z,23.40
2018-09-22T11:42:09.752Z,23.50
2018-09-22T11:44:38.901Z,23.80
2018-09-22T11:47:08.123Z,24.30
2018-09-22T11:49:37.224Z,23.80
2018-09-22T11:52:06.508Z,24.00
2018-09-22T11:54:35.620Z,24.10
2018-09-22T11:57:04.689Z,24.10
2018-09-22T11:59:33.885Z,23.50
2018-09-22T12:02:03.026Z,23.60
2018-09-22T12:04:32.000Z,24.10
2018-09-22T12:07:01.073Z,24.50
2018-09-22T12:09:30.156Z,24.20
2018-09-22T12:11:59.261Z,24.80
2018-09-22T12:14:28.359Z,24.70
2018-09-22T12:16:57.468Z,23.80
2018-09-22T12:19:26.660Z,22.90
2018-09-22T12:21:55.800Z,22.10
2018-09-22T12:24:24.904Z,21.70
2018-09-22T12:26:54.045Z,21.70
2018-09-22T12:29:23.132Z,22.00
2018-09-22T12:31:52.340Z,22.20
2018-09-22T12:34:21.415Z,22.40
2018-09-22T12:36:50.520Z,21.80
2018-09-22T12:39:19.617Z,21.80
2018-09-22T12:41:48.740Z,21.90
2018-09-22T12:44:17.813Z,22.40
2018-09-22T12:46:46.905Z,22.00
2018-09-22T12:49:15.976Z,22.20
2018-09-22T12:51:45.294Z,22.30
2018-09-22T12:54:14.413Z,22.40
2018-09-22T12:56:43.512Z,21.60
2018-09-22T12:59:12.697Z,22.10
2018-09-22T13:01:41.792Z,22.10
2018-09-22T13:04:10.859Z,22.60
2018-09-22T13:06:39.975Z,23.10
2018-09-22T13:09:10.660Z,23.90
2018-09-22T13:11:39.815Z,23.90
2018-09-22T13:14:09.255Z,23.30
2018-09-22T13:16:38.921Z,23.30
2018-09-22T13:19:08.012Z,23.40
2018-09-22T13:21:37.100Z,23.00
2018-09-22T13:24:06.203Z,22.90
2018-09-22T13:26:35.301Z,22.60
2018-09-22T13:29:04.701Z,22.90
2018-09-22T13:31:35.169Z,23.40
2018-09-22T13:34:04.484Z,22.80
2018-09-22T13:36:33.553Z,22.80
2018-09-22T13:39:02.648Z,22.60
2018-09-22T13:41:31.784Z,22.90
2018-09-22T13:44:01.082Z,22.70
2018-09-22T13:46:30.135Z,22.80
2018-09-22T13:48:59.277Z,22.30
2018-09-22T13:51:28.351Z,21.80
2018-09-22T13:53:57.488Z,21.20
2018-09-22T13:56:26.573Z,21.20
2018-09-22T13:58:55.652Z,20.90
2018-09-22T14:01:24.789Z,21.00
2018-09-22T14:03:53.904Z,20.80
2018-09-22T14:06:22.920Z,20.80
2018-09-22T14:08:52.053Z,20.60
2018-09-22T14:11:21.128Z,20.60
2018-09-22T14:13:50.228Z,20.80
2018-09-22T14:16:19.280Z,21.00
2018-09-22T14:18:48.481Z,21.20
2018-09-22T14:21:17.752Z,21.20
2018-09-22T14:23:47.241Z,21.40
2018-09-22T14:26:16.352Z,21.50
2018-09-22T14:28:45.440Z,21.20
2018-09-22T14:31:14.508Z,21.20
2018-09-22T14:33:43.604Z,21.10
2018-09-22T14:36:12.749Z,20.90
2018-09-22T14:38:41.848Z,21.10
2018-09-22T14:41:10.948Z,21.10
2018-09-22T14:43:40.044Z,21.10
2018-09-22T14:46:09.164Z,20.50
2018-09-22T14:48:38.269Z,20.30
2018-09-22T14:51:07.321Z,20.30
2018-09-22T14:53:36.382Z,20.10
2018-09-22T14:56:06.729Z,20.00
2018-09-22T14:58:35.748Z,19.80
2018-09-22T15:01:04.969Z,19.40
2018-09-22T15:03:34.004Z,19.20
2018-09-22T15:06:03.120Z,18.70
2018-09-22T15:08:32.661Z,18.80
2018-09-22T15:11:01.705Z,18.80
2018-09-22T15:13:30.768Z,18.80
2018-09-22T15:16:00.272Z,18.80
2018-09-22T15:18:29.405Z,18.70
2018-09-22T15:20:58.456Z,18.80
2018-09-22T15:23:27.596Z,18.90
2018-09-22T15:25:56.668Z,18.90
2018-09-22T15:28:25.789Z,18.90
2018-09-22T15:30:55.189Z,18.90
2018-09-22T15:33:24.284Z,18.70
2018-09-22T15:35:53.359Z,18.60
2018-09-22T15:38:22.453Z,18.50
2018-09-22T15:40:52.075Z,18.60
2018-09-22T15:43:21.176Z,18.60
2018-09-22T15:45:50.281Z,18.60
2018-09-22T15:48:19.398Z,18.60
2018-09-22T15:50:48.468Z,18.40
2018-09-22T15:53:17.556Z,18.40
2018-09-22T15:55:46.656Z,18.20
2018-09-22T15:58:15.864Z,18.20
2018-09-22T16:00:44.994Z,18.10
2018-09-22T16:03:14.045Z,18.00
2018-09-22T16:05:43.141Z,18.00
2018-09-22T16:08:12.200Z,17.90
2018-09-22T16:10:41.328Z,17.80
2018-09-22T16:13:10.412Z,17.90
2018-09-22T16:15:39.541Z,17.80
2018-09-22T16:18:08.617Z,17.70
2018-09-22T16:20:37.718Z,17.50
2018-09-22T16:23:07.557Z,17.20
2018-09-22T16:25:36.744Z,17.00
2018-09-22T16:28:05.840Z,17.00
2018-09-22T16:30:34.973Z,16.90
2018-09-22T16:33:04.080Z,16.80
2018-09-22T16:35:33.205Z,16.80
2018-09-22T16:38:02.280Z,16.80
2018-09-22T16:40:31.364Z,16.60
2018-09-22T16:43:00.412Z,16.60
2018-09-22T16:45:29.536Z,16.60
2018-09-22T16:47:58.685Z,16.60
2018-09-22T16:50:27.791Z,16.50
2018-09-22T16:52:56.876Z,16.50
2018-09-22T16:55:25.940Z,16.50
2018-09-22T16:57:55.600Z,16.40
2018-09-22T17:00:24.796Z,16.30
2018-09-22T17:02:53.872Z,16.30
2018-09-22T17:05:22.928Z,16.20
2018-09-22T17:07:52.172Z,16.00
2018-09-22T17:10:21.261Z,15.70
2018-09-22T17:12:50.425Z,15.50
2018-09-22T17:15:19.501Z,15.20
2018-09-22T17:17:49.140Z,15.00
2018-09-22T17:20:18.252Z,14.70
2018-09-22T17:22:47.331Z,14.60
2018-09-22T17:25:16.427Z,14.40
2018-09-22T17:27:45.547Z,14.20
2018-09-22T17:30:14.672Z,14.10
2018-09-22T17:32:43.833Z,13.70
2018-09-22T17:35:12.844Z,13.40
2018-09-22T17:37:42.022Z,13.20
2018-09-22T17:40:11.084Z,13.00
2018-09-22T17:42:40.300Z,12.90
2018-09-22T17:45:09.688Z,12.80
2018-09-22T17:47:38.800Z,12.80
2018-09-22T17:50:07.917Z,12.70
2018-09-22T17:52:37.056Z,12.70
2018-09-22T17:55:06.480Z,12.70
2018-09-22T17:57:35.836Z,12.70
2018-09-22T18:00:05.094Z,12.60
2018-09-22T18:02:34.189Z,12.50
2018-09-22T18:05:03.305Z,12.50
2018-09-22T18:07:32.472Z,12.60
2018-09-22T18:10:01.555Z,12.60
2018-09-22T18:12:30.588Z,12.60
2018-09-22T18:14:59.744Z,12.60
2018-09-22T18:17:28.841Z,12.60
2018-09-22T18:19:57.985Z,12.50
2018-09-22T18:22:27.072Z,12.50
2018-09-22T18:24:56.148Z,12.50
2018-09-22T18:27:25.684Z,12.40
2018-09-22T18:29:54.764Z,12.40
2018-09-22T18:32:23.868Z,12.40
2018-09-22T18:34:52.944Z,12.30
2018-09-22T18:37:22.213Z,12.30
2018-09-22T18:39:51.359Z,12.40
2018-09-22T18:42:20.432Z,12.30
2018-09-22T18:44:49.549Z,12.40
2018-09-22T18:47:18.645Z,12.30
2018-09-22T18:49:47.742Z,12.30
2018-09-22T18:52:16.928Z,12.30
2018-09-22T18:54:45.996Z,12.40
2018-09-22T18:57:15.092Z,12.40
2018-09-22T18:59:44.429Z,12.40
2018-09-22T19:02:13.480Z,12.40
2018-09-22T19:04:43.236Z,12.30
2018-09-22T19:07:12.272Z,12.30
2018-09-22T19:09:42.017Z,12.40
2018-09-22T19:12:11.028Z,12.40
2018-09-22T19:15:43.571Z,12.40
2018-09-22T19:18:48.965Z,12.50
2018-09-22T19:21:22.356Z,12.50
2018-09-22T19:23:58.072Z,12.40
2018-09-22T19:27:31.000Z,12.40
2018-09-22T19:30:03.783Z,12.40
2018-09-22T19:32:45.757Z,12.40
2018-09-22T19:36:20.388Z,12.40
2018-09-22T19:39:06.749Z,12.40
2018-09-22T19:42:39.760Z,12.40
2018-09-22T19:45:14.837Z,12.20
2018-09-22T19:47:48.536Z,12.00
2018-09-22T19:50:22.817Z,12.10
2018-09-22T19:52:52.592Z,12.20
2018-09-22T19:55:21.736Z,12.30
2018-09-22T19:57:51.117Z,12.30
2018-09-22T20:00:20.224Z,12.40
2018-09-22T20:02:49.300Z,12.50
2018-09-22T20:05:18.456Z,12.50
2018-09-22T20:07:47.516Z,12.40
2018-09-22T20:10:16.628Z,12.40
2018-09-22T20:12:45.749Z,12.40
2018-09-22T20:15:14.841Z,12.40
2018-09-22T20:17:44.053Z,12.30
2018-09-22T20:20:13.196Z,12.20
2018-09-22T20:22:42.861Z,12.30
2018-09-22T20:25:11.913Z,12.30
2018-09-22T20:27:40.956Z,12.30
2018-09-22T20:30:10.020Z,12.30
2018-09-22T20:32:39.380Z,12.30
2018-09-22T20:35:08.754Z,12.30
2018-09-22T20:37:37.881Z,12.30
2018-09-22T20:40:07.028Z,12.20
2018-09-22T20:42:36.121Z,12.20
2018-09-22T20:45:05.578Z,12.20
2018-09-22T20:47:34.696Z,12.20
2018-09-22T20:50:03.813Z,12.10
2018-09-22T20:52:32.908Z,12.10
2018-09-22T20:55:02.022Z,12.10
2018-09-22T20:57:31.200Z,12.10
2018-09-22T21:00:00.270Z,12.10
2018-09-22T21:02:29.394Z,12.10
2018-09-22T21:04:58.468Z,12.20
2018-09-22T21:07:27.585Z,12.20
2018-09-22T21:09:56.705Z,12.20
2018-09-22T21:12:25.753Z,12.20
2018-09-22T21:14:54.792Z,12.20
2018-09-22T21:17:24.340Z,12.20
2018-09-22T21:19:53.470Z,12.20
2018-09-22T21:22:23.056Z,12.20
2018-09-22T21:24:52.200Z,12.20
2018-09-22T21:27:21.294Z,12.20
2018-09-22T21:29:50.340Z,12.30
2018-09-22T21:32:19.489Z,12.30
2018-09-22T21:34:48.557Z,12.30
2018-09-22T21:37:17.652Z,12.30
2018-09-22T21:39:46.668Z,12.20
2018-09-22T21:42:16.320Z,12.20
2018-09-22T21:44:45.453Z,12.20
2018-09-22T21:47:14.741Z,12.20
2018-09-22T21:49:43.844Z,12.30
2018-09-22T21:52:12.884Z,12.30
2018-09-22T21:54:42.590Z,12.20
2018-09-22T21:57:11.623Z,12.20
2018-09-22T21:59:40.740Z,12.20
2018-09-22T22:02:09.877Z,12.30
2018-09-22T22:04:38.984Z,12.30
2018-09-22T22:07:08.249Z,12.30
2018-09-22T22:09:37.405Z,12.30
2018-09-22T22:12:06.505Z,12.30
2018-09-22T22:14:36.188Z,12.30
2018-09-22T22:17:05.280Z,12.40
2018-09-22T22:19:34.321Z,12.30
2018-09-22T22:22:03.394Z,12.30
2018-09-22T22:24:32.528Z,12.30
2018-09-22T22:27:02.549Z,12.20
2018-09-22T22:29:31.629Z,12.30
2018-09-22T22:32:02.152Z,12.10
2018-09-22T22:34:31.224Z,12.10
2018-09-22T22:37:00.336Z,12.10
2018-09-22T22:39:29.497Z,12.00
2018-09-22T22:41:58.600Z,12.00
2018-09-22T22:44:27.757Z,12.00
2018-09-22T22:46:56.726Z,12.10
2018-09-22T22:49:25.830Z,12.10
2018-09-22T22:51:54.924Z,12.10
2018-09-22T22:54:23.988Z,12.10
2018-09-22T22:56:53.072Z,12.10
2018-09-22T22:59:22.180Z,12.10
2018-09-22T23:01:51.605Z,12.10
2018-09-22T23:04:20.713Z,12.00
2018-09-22T23:06:49.760Z,12.00
2018-09-22T23:09:19.200Z,12.00
2018-09-22T23:11:48.260Z,12.00
2018-09-22T23:14:17.396Z,12.00
2018-09-22T23:16:46.465Z,12.00
2018-09-22T23:19:15.539Z,12.00
2018-09-22T23:21:44.640Z,12.00
2018-09-22T23:24:13.716Z,12.00
2018-09-22T23:26:42.769Z,11.90
2018-09-22T23:29:11.780Z,12.00
2018-09-22T23:31:40.932Z,12.00
2018-09-22T23:34:10.017Z,12.00
2018-09-22T23:36:39.149Z,11.90
2018-09-22T23:39:10.185Z,11.80
2018-09-22T23:41:39.444Z,11.70
2018-09-22T23:44:09.022Z,11.60
2018-09-22T23:46:39.076Z,11.70
2018-09-22T23:49:08.572Z,11.60
2018-09-22T23:51:37.723Z,11.70
2018-09-22T23:54:06.964Z,11.70
2018-09-22T23:56:36.116Z,11.60
2018-09-22T23:59:05.217Z,11.60
